MQP weather

Kruger Mpumalanga International Airport
Mpumalanga, Mpumalanga, South Africa

Public forecast

Using degrees Celsius for public forecast. Weather courtesy of forecast.io.

Current aviation weather report (METAR) for Kruger Mpumalanga International Airport

Retrieved 2020/01/19 06:00 UTC (57 minutes ago):

FAKN 190600Z 26002KT 9999 -RA FEW003 BKN015 OVC030 20/19 Q1013 RERA TEMPO 5000 BKN010

Aviation forecast (TAF) for Kruger Mpumalanga International Airport

Forecast is more than 12 hours old.

Retrieved 2017/06/05 04:55 UTC (3 years ago):

TAF FAKN 050300Z 0504/0515 25006KT CAVOK BECMG 0511/0513 13005KT SCT030 BECMG 0513/0515 07005KT TX22/0513ZTN08/0504Z